createdAt,value
2022-10-20T00:00:26.849Z,4.35
2022-10-20T00:03:13.868Z,5.22
2022-10-20T00:06:08.824Z,6.18
2022-10-20T00:08:57.872Z,3.42
2022-10-20T00:11:45.976Z,3.95
2022-10-20T00:14:33.093Z,4.88
2022-10-20T00:17:20.229Z,6.40
2022-10-20T00:20:07.784Z,3.38
2022-10-20T00:22:55.158Z,5.78
2022-10-20T00:25:44.161Z,5.75
2022-10-20T00:28:31.404Z,3.17
2022-10-20T00:31:18.594Z,4.90
2022-10-20T00:34:09.711Z,3.55
2022-10-20T00:36:58.269Z,4.53
2022-10-20T00:39:45.404Z,10.10
2022-10-20T00:42:34.001Z,7.68
2022-10-20T00:45:22.297Z,5.40
2022-10-20T00:48:14.308Z,4.35
2022-10-20T00:51:01.611Z,3.75
2022-10-20T00:53:50.533Z,3.83
2022-10-20T00:56:38.861Z,3.20
2022-10-20T00:59:28.518Z,4.07
2022-10-20T01:02:15.961Z,5.35
2022-10-20T01:07:50.283Z,4.75
2022-10-20T01:10:41.244Z,5.63
2022-10-20T01:13:31.331Z,5.53
2022-10-20T01:16:25.363Z,3.85
2022-10-20T01:19:24.661Z,3.90
2022-10-20T01:22:23.118Z,5.07
2022-10-20T01:25:18.473Z,5.90
2022-10-20T01:28:08.756Z,6.25
2022-10-20T01:30:58.443Z,3.58
2022-10-20T01:33:49.631Z,4.68
2022-10-20T01:36:40.220Z,6.88
2022-10-20T01:39:29.209Z,3.25
2022-10-20T01:42:17.952Z,6.85
2022-10-20T01:45:07.365Z,4.70
2022-10-20T01:47:55.818Z,8.15
2022-10-20T01:50:43.487Z,6.65
2022-10-20T01:56:19.805Z,2.63
2022-10-20T01:59:10.997Z,7.00
2022-10-20T02:02:07.598Z,6.05
2022-10-20T02:04:59.254Z,3.92
2022-10-20T02:07:46.331Z,3.85
2022-10-20T02:10:36.947Z,5.55
2022-10-20T02:13:26.061Z,5.80
2022-10-20T02:16:14.948Z,3.70
2022-10-20T02:19:03.744Z,5.95
2022-10-20T02:21:51.705Z,7.35
2022-10-20T02:24:40.251Z,6.18
2022-10-20T02:27:29.569Z,8.25
2022-10-20T02:30:17.838Z,8.65
2022-10-20T02:33:05.043Z,2.92
2022-10-20T02:38:41.003Z,3.78
2022-10-20T02:41:27.849Z,6.47
2022-10-20T02:44:14.843Z,3.60
2022-10-20T02:47:02.141Z,6.90
2022-10-20T02:49:49.231Z,4.07
2022-10-20T02:52:36.690Z,5.28
2022-10-20T02:58:11.930Z,7.30
2022-10-20T03:00:59.282Z,1.42
2022-10-20T03:03:46.235Z,5.10
2022-10-20T03:06:33.255Z,2.65
2022-10-20T03:09:20.351Z,3.58
2022-10-20T03:12:07.935Z,5.03
2022-10-20T03:14:56.297Z,6.47
2022-10-20T03:17:43.193Z,7.50
2022-10-20T03:20:30.490Z,6.15
2022-10-20T03:23:19.996Z,9.65
2022-10-20T03:26:08.459Z,3.38
2022-10-20T03:28:55.684Z,12.95
2022-10-20T03:31:44.039Z,5.97
2022-10-20T03:34:31.342Z,13.38
2022-10-20T03:37:18.455Z,7.25
2022-10-20T03:40:05.970Z,5.57
2022-10-20T03:42:53.033Z,7.75
2022-10-20T03:45:40.455Z,7.32
2022-10-20T03:48:28.620Z,3.73
2022-10-20T03:51:16.296Z,4.38
2022-10-20T03:54:05.087Z,7.07
2022-10-20T03:56:52.107Z,8.30
2022-10-20T03:59:39.168Z,5.05
2022-10-20T04:02:31.628Z,2.45
2022-10-20T04:05:21.062Z,5.15
2022-10-20T04:08:08.478Z,7.22
2022-10-20T04:10:56.145Z,3.15
2022-10-20T04:13:43.466Z,3.38
2022-10-20T04:16:30.668Z,6.35
2022-10-20T04:19:18.056Z,3.45
2022-10-20T04:22:06.619Z,4.60
2022-10-20T04:24:53.421Z,4.95
2022-10-20T04:27:40.823Z,8.55
2022-10-20T04:30:27.788Z,3.88
2022-10-20T04:33:15.245Z,9.65
2022-10-20T04:36:02.989Z,6.93
2022-10-20T04:38:51.601Z,3.60
2022-10-20T04:41:40.814Z,4.40
2022-10-20T04:44:27.579Z,4.88
2022-10-20T04:47:14.693Z,5.25
2022-10-20T04:50:01.891Z,9.05
2022-10-20T04:52:48.851Z,16.42
2022-10-20T04:55:37.744Z,5.00
2022-10-20T04:58:24.984Z,17.73
2022-10-20T05:01:12.221Z,8.68
2022-10-20T05:03:59.180Z,5.32
2022-10-20T05:06:46.004Z,10.60
2022-10-20T05:09:33.283Z,5.55
2022-10-20T05:12:21.547Z,9.00
2022-10-20T05:15:09.450Z,4.93
2022-10-20T05:21:07.389Z,4.78
2022-10-20T05:23:51.046Z,11.40
2022-10-20T05:26:37.888Z,6.07
2022-10-20T05:29:26.579Z,4.90
2022-10-20T05:32:13.780Z,4.70
2022-10-20T05:35:00.686Z,6.03
2022-10-20T05:37:47.724Z,13.60
2022-10-20T05:40:34.721Z,7.53
2022-10-20T05:43:22.020Z,6.97
2022-10-20T05:46:11.586Z,3.47
2022-10-20T05:49:00.006Z,7.13
2022-10-20T05:51:47.855Z,5.25
2022-10-20T05:57:21.583Z,7.03
2022-10-20T06:00:09.294Z,4.55
2022-10-20T06:03:00.896Z,5.38
2022-10-20T06:05:48.098Z,10.52
2022-10-20T06:08:35.017Z,5.95
2022-10-20T06:11:22.545Z,7.28
2022-10-20T06:14:10.502Z,4.03
2022-10-20T06:16:58.213Z,5.07
2022-10-20T06:19:48.101Z,6.85
2022-10-20T06:22:35.398Z,9.40
2022-10-20T06:25:22.978Z,6.38
2022-10-20T06:28:10.097Z,7.20
2022-10-20T06:30:57.090Z,8.18
2022-10-20T06:33:44.717Z,12.65
2022-10-20T06:36:33.087Z,9.93
2022-10-20T06:39:21.000Z,8.68
2022-10-20T06:42:11.075Z,5.18
2022-10-20T06:45:05.462Z,4.07
2022-10-20T06:47:52.745Z,10.88
2022-10-20T06:50:39.746Z,6.38
2022-10-20T06:53:28.630Z,10.40
2022-10-20T06:56:16.812Z,4.32
2022-10-20T06:59:04.073Z,4.47
2022-10-20T07:01:53.569Z,6.72
2022-10-20T07:04:40.685Z,3.85
2022-10-20T07:07:27.821Z,5.65
2022-10-20T07:10:16.339Z,6.90
2022-10-20T07:13:08.285Z,4.57
2022-10-20T07:15:55.736Z,4.55
2022-10-20T07:21:35.777Z,9.95
2022-10-20T07:24:24.653Z,7.60
2022-10-20T07:27:13.478Z,8.93
2022-10-20T07:30:01.049Z,7.75
2022-10-20T07:32:48.238Z,6.13
2022-10-20T07:35:41.974Z,7.47
2022-10-20T07:38:29.197Z,6.72
2022-10-20T07:41:16.082Z,5.53
2022-10-20T07:44:04.731Z,7.88
2022-10-20T07:46:53.947Z,8.85
2022-10-20T07:49:44.686Z,4.63
2022-10-20T07:52:32.540Z,5.22
2022-10-20T07:55:37.747Z,7.63
2022-10-20T07:58:26.065Z,4.63
2022-10-20T08:01:14.951Z,11.77
2022-10-20T08:04:01.846Z,4.10
2022-10-20T08:06:48.995Z,4.90
2022-10-20T08:09:36.212Z,6.57
2022-10-20T08:12:23.578Z,4.35
2022-10-20T08:15:10.844Z,8.20
2022-10-20T08:17:59.379Z,10.05
2022-10-20T08:20:46.554Z,6.45
2022-10-20T08:23:34.078Z,12.77
2022-10-20T08:26:21.905Z,10.48
2022-10-20T08:29:08.986Z,5.22
2022-10-20T08:31:55.924Z,7.95
2022-10-20T08:34:44.794Z,4.53
2022-10-20T08:37:32.416Z,9.70
2022-10-20T08:43:06.797Z,7.97
2022-10-20T08:45:56.201Z,6.80
2022-10-20T08:48:44.135Z,6.10
2022-10-20T08:54:22.485Z,5.82
2022-10-20T08:57:16.937Z,8.05
2022-10-20T09:00:14.646Z,3.92
2022-10-20T09:03:04.307Z,7.50
2022-10-20T09:05:52.870Z,4.43
2022-10-20T09:08:41.916Z,4.95
2022-10-20T09:11:34.668Z,4.55
2022-10-20T09:14:21.860Z,3.95
2022-10-20T09:17:14.095Z,8.45
2022-10-20T09:20:01.506Z,13.00
2022-10-20T09:22:50.006Z,5.50
2022-10-20T09:25:37.652Z,3.28
2022-10-20T09:28:29.256Z,4.38
2022-10-20T09:31:25.806Z,2.65
2022-10-20T09:34:23.303Z,4.65
2022-10-20T09:37:13.870Z,6.60
2022-10-20T09:40:01.306Z,9.50
2022-10-20T09:42:51.155Z,2.83
2022-10-20T09:45:41.063Z,4.72
2022-10-20T09:48:30.324Z,5.40
2022-10-20T09:51:20.392Z,3.20
2022-10-20T09:54:08.318Z,4.05
2022-10-20T09:56:56.082Z,3.92
2022-10-20T09:59:46.434Z,5.78
2022-10-20T10:02:35.210Z,3.33
2022-10-20T10:05:22.933Z,5.38
2022-10-20T10:08:14.383Z,3.95
2022-10-20T10:11:03.429Z,4.32
2022-10-20T10:13:51.619Z,4.88
2022-10-20T10:16:42.702Z,9.07
2022-10-20T10:19:33.238Z,6.93
2022-10-20T10:22:21.280Z,5.70
2022-10-20T10:25:10.001Z,4.70
2022-10-20T10:27:59.413Z,5.55
2022-10-20T10:30:49.445Z,6.05
2022-10-20T10:33:37.610Z,8.43
2022-10-20T10:36:32.226Z,7.20
2022-10-20T10:39:19.035Z,7.07
2022-10-20T10:42:12.607Z,4.72
2022-10-20T10:45:04.712Z,9.45
2022-10-20T10:48:01.616Z,4.70
2022-10-20T10:50:52.486Z,7.10
2022-10-20T10:53:52.424Z,10.95
2022-10-20T10:56:44.201Z,8.43
2022-10-20T10:59:34.696Z,12.77
2022-10-20T11:02:31.711Z,4.85
2022-10-20T11:05:31.642Z,8.13
2022-10-20T11:08:22.698Z,10.32
2022-10-20T11:11:16.875Z,6.13
2022-10-20T11:14:11.954Z,7.38
2022-10-20T11:17:04.924Z,6.57
2022-10-20T11:19:59.224Z,6.97
2022-10-20T11:22:51.864Z,7.68
2022-10-20T11:25:42.048Z,8.30
2022-10-20T11:28:33.372Z,7.93
2022-10-20T11:31:24.619Z,7.15
2022-10-20T11:34:14.740Z,9.38
2022-10-20T11:37:03.673Z,11.80
2022-10-20T11:39:53.804Z,12.48
2022-10-20T11:42:43.697Z,12.43
2022-10-20T11:45:34.606Z,12.35
2022-10-20T11:48:24.728Z,15.30
2022-10-20T11:51:31.620Z,7.38
2022-10-20T11:54:28.246Z,7.57
2022-10-20T11:57:18.488Z,13.75
2022-10-20T12:03:26.389Z,9.05
2022-10-20T12:06:26.088Z,11.82
2022-10-20T12:09:26.908Z,12.95
2022-10-20T12:12:16.324Z,15.75
2022-10-20T12:15:04.205Z,8.07
2022-10-20T12:17:52.243Z,13.55
2022-10-20T12:21:03.158Z,10.93
2022-10-20T12:24:03.025Z,6.95
2022-10-20T12:27:08.064Z,15.38
2022-10-20T12:30:00.126Z,14.73
2022-10-20T12:33:00.921Z,7.43
2022-10-20T12:36:05.948Z,10.68
2022-10-20T12:38:54.095Z,18.38
2022-10-20T12:41:45.831Z,12.27
2022-10-20T12:44:34.244Z,7.40
2022-10-20T12:47:23.156Z,6.15
2022-10-20T12:50:21.239Z,14.48
2022-10-20T12:55:59.148Z,10.45
2022-10-20T12:59:01.124Z,11.57
2022-10-20T13:02:08.183Z,9.07
2022-10-20T13:04:58.244Z,9.73
2022-10-20T13:08:04.609Z,11.70
2022-10-20T13:10:53.857Z,9.90
2022-10-20T13:13:44.751Z,11.77
2022-10-20T13:16:33.542Z,11.65
2022-10-20T13:19:23.374Z,13.90
2022-10-20T13:22:28.414Z,11.77
2022-10-20T13:25:21.616Z,11.70
2022-10-20T13:28:15.516Z,13.32
2022-10-20T13:31:18.556Z,8.18
2022-10-20T13:34:09.140Z,8.77
2022-10-20T13:37:09.725Z,11.82
2022-10-20T13:40:02.827Z,13.85
2022-10-20T13:42:58.735Z,15.85
2022-10-20T13:45:54.013Z,11.10
2022-10-20T13:48:46.629Z,9.60
2022-10-20T13:51:34.208Z,12.88
2022-10-20T13:54:24.602Z,7.72
2022-10-20T13:57:17.467Z,13.68
2022-10-20T14:00:18.174Z,15.57
2022-10-20T14:03:07.087Z,11.48
2022-10-20T14:05:54.960Z,13.27
2022-10-20T14:08:46.268Z,9.32
2022-10-20T14:11:33.869Z,15.68
2022-10-20T14:17:09.974Z,11.60
2022-10-20T14:20:10.172Z,12.75
2022-10-20T14:22:57.911Z,15.00
2022-10-20T14:25:45.537Z,11.88
2022-10-20T14:28:33.953Z,20.75
2022-10-20T14:31:27.217Z,12.52
2022-10-20T14:37:04.419Z,12.93
2022-10-20T14:39:52.415Z,15.15
2022-10-20T14:42:45.694Z,13.57
2022-10-20T14:48:20.103Z,11.27
2022-10-20T14:51:22.123Z,11.15
2022-10-20T14:57:34.009Z,15.40
2022-10-20T15:00:26.277Z,13.93
2022-10-20T15:03:13.374Z,12.50
2022-10-20T15:06:04.765Z,11.95
2022-10-20T15:08:57.763Z,21.30
2022-10-20T15:11:45.046Z,15.88
2022-10-20T15:14:33.807Z,10.57
2022-10-20T15:17:38.313Z,17.00
2022-10-20T15:20:33.352Z,9.52
2022-10-20T15:23:23.040Z,12.65
2022-10-20T15:26:12.469Z,7.18
2022-10-20T15:29:01.443Z,8.75
2022-10-20T15:31:49.788Z,13.57
2022-10-20T15:34:36.823Z,12.50
2022-10-20T15:37:24.183Z,15.48
2022-10-20T15:40:11.491Z,10.95
2022-10-20T15:42:58.621Z,8.88
2022-10-20T15:45:47.238Z,12.13
2022-10-20T15:48:36.199Z,12.10
2022-10-20T15:51:25.417Z,12.73
2022-10-20T15:54:14.623Z,14.93
2022-10-20T15:57:01.961Z,17.35
2022-10-20T15:59:49.305Z,9.88
2022-10-20T16:02:46.372Z,15.68
2022-10-20T16:05:35.629Z,10.18
2022-10-20T16:14:53.615Z,15.07
2022-10-20T16:17:41.213Z,13.75
2022-10-20T16:20:31.479Z,12.38
2022-10-20T16:23:19.739Z,10.07
2022-10-20T16:26:08.134Z,11.52
2022-10-20T16:28:55.418Z,15.55
2022-10-20T16:31:42.357Z,12.00
2022-10-20T16:34:29.422Z,14.45
2022-10-20T16:37:16.686Z,17.98
2022-10-20T16:40:08.197Z,14.13
2022-10-20T16:42:55.329Z,12.55
2022-10-20T16:45:42.683Z,20.30
2022-10-20T16:48:29.953Z,13.90
2022-10-20T16:51:17.381Z,21.67
2022-10-20T16:56:53.529Z,13.40
2022-10-20T16:59:41.381Z,13.35
2022-10-20T17:02:28.382Z,12.55
2022-10-20T17:05:16.643Z,15.43
2022-10-20T17:08:04.884Z,12.70
2022-10-20T17:10:56.442Z,15.82
2022-10-20T17:13:48.435Z,13.52
2022-10-20T17:16:38.190Z,11.23
2022-10-20T17:19:25.507Z,14.32
2022-10-20T17:22:12.768Z,12.18
2022-10-20T17:25:00.318Z,16.75
2022-10-20T17:27:47.592Z,11.32
2022-10-20T17:30:36.376Z,12.85
2022-10-20T17:33:24.227Z,8.93
2022-10-20T17:36:13.073Z,12.52
2022-10-20T17:39:03.386Z,22.58
2022-10-20T17:41:50.998Z,13.45
2022-10-20T17:44:37.829Z,12.20
2022-10-20T17:47:26.236Z,20.27
2022-10-20T17:50:13.683Z,13.32
2022-10-20T17:53:01.669Z,19.30
2022-10-20T17:55:48.994Z,15.23
2022-10-20T17:58:39.241Z,16.25
2022-10-20T18:01:27.654Z,12.63
2022-10-20T18:04:16.988Z,10.32
2022-10-20T18:07:03.998Z,10.70
2022-10-20T18:09:51.155Z,9.32
2022-10-20T18:12:38.645Z,13.65
2022-10-20T18:15:26.315Z,13.32
2022-10-20T18:18:13.362Z,18.20
2022-10-20T18:21:02.139Z,14.15
2022-10-20T18:23:49.197Z,11.77
2022-10-20T18:26:37.177Z,11.48
2022-10-20T18:29:25.582Z,17.52
2022-10-20T18:32:12.844Z,15.15
2022-10-20T18:35:00.267Z,11.52
2022-10-20T18:37:52.639Z,16.83
2022-10-20T18:40:40.080Z,13.85
2022-10-20T18:43:27.268Z,16.80
2022-10-20T18:46:15.316Z,17.55
2022-10-20T18:49:03.647Z,12.80
2022-10-20T18:51:51.184Z,16.48
2022-10-20T18:54:41.131Z,13.70
2022-10-20T18:57:28.491Z,16.63
2022-10-20T19:00:16.221Z,16.58
2022-10-20T19:03:07.840Z,17.85
2022-10-20T19:05:59.184Z,15.93
2022-10-20T19:08:48.725Z,17.48
2022-10-20T19:11:38.267Z,17.55
2022-10-20T19:14:25.637Z,18.77
2022-10-20T19:17:13.049Z,19.15
2022-10-20T19:20:00.215Z,17.13
2022-10-20T19:22:47.324Z,15.40
2022-10-20T19:25:34.546Z,14.95
2022-10-20T19:28:23.818Z,15.93
2022-10-20T19:31:20.956Z,19.58
2022-10-20T19:34:13.440Z,19.55
2022-10-20T19:37:00.536Z,11.43
2022-10-20T19:39:48.238Z,16.23
2022-10-20T19:42:35.648Z,23.63
2022-10-20T19:45:24.417Z,17.58
2022-10-20T19:48:11.445Z,18.63
2022-10-20T19:51:03.804Z,15.57
2022-10-20T19:53:51.917Z,17.33
2022-10-20T19:56:39.363Z,18.83
2022-10-20T19:59:26.738Z,20.42
2022-10-20T20:02:15.101Z,25.85
2022-10-20T20:05:02.366Z,15.70
2022-10-20T20:07:49.812Z,22.27
2022-10-20T20:10:37.373Z,14.88
2022-10-20T20:13:24.853Z,15.80
2022-10-20T20:16:12.063Z,13.60
2022-10-20T20:19:00.676Z,23.42
2022-10-20T20:21:49.892Z,14.63
2022-10-20T20:24:38.898Z,20.27
2022-10-20T20:27:30.351Z,12.07
2022-10-20T20:30:20.245Z,16.02
2022-10-20T20:33:09.889Z,20.65
2022-10-20T20:36:03.662Z,18.40
2022-10-20T20:38:53.825Z,15.05
2022-10-20T20:41:44.029Z,18.52
2022-10-20T20:44:31.246Z,17.13
2022-10-20T20:47:18.785Z,13.07
2022-10-20T20:50:08.244Z,15.35
2022-10-20T20:52:57.517Z,16.40
2022-10-20T20:55:53.857Z,18.40
2022-10-20T20:58:42.071Z,15.80
2022-10-20T21:01:31.725Z,17.05
2022-10-20T21:04:19.052Z,24.80
2022-10-20T21:07:08.084Z,15.50
2022-10-20T21:09:57.139Z,19.35
2022-10-20T21:12:45.543Z,13.05
2022-10-20T21:15:32.930Z,18.38
2022-10-20T21:18:20.169Z,24.10
2022-10-20T21:23:59.569Z,17.50
2022-10-20T21:26:48.938Z,15.68
2022-10-20T21:29:35.786Z,17.95
2022-10-20T21:32:22.972Z,19.55
2022-10-20T21:35:10.234Z,17.13
2022-10-20T21:37:57.296Z,25.33
2022-10-20T21:40:44.498Z,18.38
2022-10-20T21:43:32.955Z,21.67
2022-10-20T21:46:21.454Z,18.15
2022-10-20T21:49:09.431Z,24.77
2022-10-20T21:51:57.689Z,18.00
2022-10-20T21:54:44.976Z,11.57
2022-10-20T21:57:32.278Z,19.15
2022-10-20T22:00:23.249Z,21.08
2022-10-20T22:03:11.155Z,23.17
2022-10-20T22:05:58.251Z,22.38
2022-10-20T22:08:49.224Z,20.05
2022-10-20T22:11:38.209Z,21.38
2022-10-20T22:14:25.289Z,15.32
2022-10-20T22:17:14.483Z,27.88
2022-10-20T22:20:01.566Z,14.57
2022-10-20T22:22:49.153Z,18.33
2022-10-20T22:25:37.819Z,21.27
2022-10-20T22:28:25.087Z,16.50
2022-10-20T22:31:15.953Z,20.10
2022-10-20T22:34:07.644Z,18.27
2022-10-20T22:36:54.823Z,16.38
2022-10-20T22:39:41.781Z,17.88
2022-10-20T22:42:28.623Z,19.30
2022-10-20T22:45:18.972Z,16.90
2022-10-20T22:48:06.315Z,16.45
2022-10-20T22:50:55.400Z,25.95
2022-10-20T22:53:42.924Z,19.20
2022-10-20T22:56:30.247Z,14.23
2022-10-20T22:59:17.617Z,16.83
2022-10-20T23:02:04.908Z,14.73
2022-10-20T23:04:52.012Z,20.63
2022-10-20T23:07:41.432Z,32.03
2022-10-20T23:10:29.315Z,20.30
2022-10-20T23:13:16.714Z,19.05
2022-10-20T23:16:04.189Z,22.98
2022-10-20T23:21:39.188Z,19.73
2022-10-20T23:24:27.816Z,25.02
2022-10-20T23:27:15.297Z,12.32
2022-10-20T23:30:02.451Z,14.68
2022-10-20T23:32:49.431Z,25.20
2022-10-20T23:35:37.154Z,13.90
2022-10-20T23:38:24.563Z,15.23
2022-10-20T23:41:13.146Z,26.52
2022-10-20T23:44:00.025Z,20.27
2022-10-20T23:46:47.344Z,16.13
2022-10-20T23:49:34.696Z,15.07
2022-10-20T23:52:21.687Z,22.08
2022-10-20T23:55:11.883Z,17.30
2022-10-20T23:58:03.246Z,20.75
